createdAt,value
2018-08-23T00:00:39.748Z,0.00
2018-08-23T00:01:39.869Z,0.00
2018-08-23T00:02:39.712Z,0.00
2018-08-23T00:03:39.839Z,0.00
2018-08-23T00:04:39.663Z,0.00
2018-08-23T00:05:39.726Z,0.00
2018-08-23T00:06:39.615Z,0.00
2018-08-23T00:07:39.726Z,0.00
2018-08-23T00:08:39.610Z,0.00
2018-08-23T00:09:39.629Z,0.00
2018-08-23T00:10:39.530Z,0.00
2018-08-23T00:11:39.658Z,0.00
2018-08-23T00:12:39.502Z,0.00
2018-08-23T00:13:39.573Z,0.00
2018-08-23T00:14:39.452Z,0.00
2018-08-23T00:15:39.466Z,0.00
2018-08-23T00:16:39.428Z,0.00
2018-08-23T00:17:40.498Z,0.00
2018-08-23T00:18:39.351Z,0.00
2018-08-23T00:19:39.391Z,0.00
2018-08-23T00:20:39.317Z,0.00
2018-08-23T00:21:39.398Z,0.00
2018-08-23T00:22:39.270Z,0.00
2018-08-23T00:23:40.346Z,0.00
2018-08-23T00:24:39.222Z,0.00
2018-08-23T00:25:39.214Z,0.00
2018-08-23T00:26:39.230Z,0.00
2018-08-23T00:27:39.158Z,0.00
2018-08-23T00:29:25.829Z,0.00
2018-08-23T00:30:25.864Z,0.00
2018-08-23T00:31:25.762Z,0.00
2018-08-23T00:32:25.859Z,0.00
2018-08-23T00:33:25.713Z,0.00
2018-08-23T00:34:25.776Z,0.00
2018-08-23T00:35:25.662Z,0.00
2018-08-23T00:36:25.775Z,0.00
2018-08-23T00:37:25.618Z,0.00
2018-08-23T00:38:25.645Z,0.00
2018-08-23T00:39:25.583Z,0.00
2018-08-23T00:40:25.707Z,0.00
2018-08-23T00:41:25.536Z,0.00
2018-08-23T00:42:25.629Z,0.00
2018-08-23T00:43:25.497Z,0.00
2018-08-23T00:44:25.541Z,0.00
2018-08-23T00:45:25.450Z,0.00
2018-08-23T00:46:25.508Z,0.00
2018-08-23T00:47:25.404Z,0.00
2018-08-23T00:48:25.524Z,0.00
2018-08-23T00:49:25.398Z,0.00
2018-08-23T00:50:25.531Z,0.00
2018-08-23T00:51:25.321Z,0.00
2018-08-23T00:52:25.445Z,0.00
2018-08-23T00:53:25.263Z,0.00
2018-08-23T00:54:25.461Z,0.00
2018-08-23T00:55:25.233Z,0.00
2018-08-23T00:56:25.279Z,0.00
2018-08-23T00:57:25.181Z,0.00
2018-08-23T00:58:25.287Z,0.00
2018-08-23T00:59:25.153Z,0.00
2018-08-23T01:00:25.132Z,0.00
2018-08-23T01:01:25.105Z,0.00
2018-08-23T01:02:26.135Z,0.00
2018-08-23T01:03:25.061Z,0.00
2018-08-23T01:04:25.121Z,0.00
2018-08-23T01:05:25.012Z,0.00
2018-08-23T01:06:25.122Z,0.00
2018-08-23T01:07:24.971Z,0.00
2018-08-23T01:08:24.968Z,0.00
2018-08-23T01:09:24.923Z,0.00
2018-08-23T01:10:24.952Z,0.00
2018-08-23T01:11:24.873Z,0.00
2018-08-23T01:12:24.977Z,0.00
2018-08-23T01:13:24.853Z,0.00
2018-08-23T01:14:24.880Z,0.00
2018-08-23T01:16:11.767Z,0.00
2018-08-23T01:17:11.790Z,0.00
2018-08-23T01:18:11.703Z,0.00
2018-08-23T01:19:11.734Z,0.00
2018-08-23T01:20:11.654Z,0.00
2018-08-23T01:21:11.712Z,0.00
2018-08-23T01:22:11.611Z,0.00
2018-08-23T01:23:11.634Z,0.00
2018-08-23T01:24:11.572Z,0.00
2018-08-23T01:25:11.642Z,0.00
2018-08-23T01:26:11.518Z,0.00
2018-08-23T01:27:11.547Z,0.00
2018-08-23T01:28:11.493Z,0.00
2018-08-23T01:29:11.564Z,0.00
2018-08-23T01:30:11.442Z,0.00
2018-08-23T01:31:11.489Z,0.00
2018-08-23T01:32:11.391Z,0.00
2018-08-23T01:33:11.507Z,0.00
2018-08-23T01:34:11.533Z,0.00
2018-08-23T01:35:11.898Z,0.00
2018-08-23T01:36:11.448Z,0.00
2018-08-23T01:37:11.372Z,0.00
2018-08-23T01:38:11.305Z,0.00
2018-08-23T01:39:11.245Z,0.00
2018-08-23T01:40:11.213Z,0.00
2018-08-23T01:41:11.231Z,0.00
2018-08-23T01:42:11.172Z,0.00
2018-08-23T01:43:11.302Z,0.00
2018-08-23T01:44:11.127Z,0.00
2018-08-23T01:45:11.314Z,0.00
2018-08-23T01:46:11.069Z,0.00
2018-08-23T01:47:11.321Z,0.00
2018-08-23T01:48:11.106Z,0.00
2018-08-23T01:49:11.024Z,0.00
2018-08-23T01:50:11.049Z,0.00
2018-08-23T01:51:57.639Z,0.00
2018-08-23T01:52:57.535Z,0.00
2018-08-23T01:54:51.356Z,0.00
2018-08-23T01:55:51.399Z,0.00
2018-08-23T01:56:51.290Z,0.00
2018-08-23T01:57:51.394Z,0.00
2018-08-23T01:58:51.233Z,0.00
2018-08-23T01:59:51.298Z,0.00
2018-08-23T02:00:51.207Z,0.00
2018-08-23T02:01:51.183Z,0.00
2018-08-23T02:02:51.226Z,0.00
2018-08-23T02:03:51.142Z,0.00
2018-08-23T02:04:51.236Z,0.00
2018-08-23T02:05:51.078Z,0.00
2018-08-23T02:06:51.148Z,0.00
2018-08-23T02:07:51.041Z,0.00
2018-08-23T02:08:51.157Z,0.00
2018-08-23T02:09:50.995Z,0.00
2018-08-23T02:10:51.155Z,0.00
2018-08-23T02:11:50.952Z,0.00
2018-08-23T02:12:50.954Z,0.00
2018-08-23T02:13:50.922Z,0.00
2018-08-23T02:14:50.996Z,0.00
2018-08-23T02:15:37.754Z,0.00
2018-08-23T02:16:37.775Z,0.00
2018-08-23T02:17:37.678Z,0.00
2018-08-23T02:18:37.684Z,0.00
2018-08-23T02:19:37.634Z,0.00
2018-08-23T02:20:37.703Z,0.00
2018-08-23T02:21:37.581Z,0.00
2018-08-23T02:22:38.637Z,0.00
2018-08-23T02:23:37.541Z,0.00
2018-08-23T02:24:37.625Z,0.00
2018-08-23T02:25:37.514Z,0.00
2018-08-23T02:26:37.537Z,0.00
2018-08-23T02:27:37.460Z,0.00
2018-08-23T02:28:37.604Z,0.00
2018-08-23T02:29:37.411Z,0.00
2018-08-23T02:30:37.513Z,0.00
2018-08-23T02:31:37.366Z,0.00
2018-08-23T02:32:37.531Z,0.00
2018-08-23T02:33:37.328Z,0.00
2018-08-23T02:34:37.435Z,0.00
2018-08-23T02:35:37.296Z,0.00
2018-08-23T02:36:37.350Z,0.00
2018-08-23T02:37:37.229Z,0.00
2018-08-23T02:38:37.371Z,0.00
2018-08-23T02:39:37.216Z,0.00
2018-08-23T02:40:37.160Z,0.00
2018-08-23T02:41:37.272Z,0.00
2018-08-23T02:42:37.143Z,0.00
2018-08-23T02:43:37.204Z,0.00
2018-08-23T02:44:37.094Z,0.00
2018-08-23T02:45:37.196Z,0.00
2018-08-23T02:46:37.028Z,0.00
2018-08-23T02:47:37.113Z,0.00
2018-08-23T02:48:36.987Z,0.00
2018-08-23T02:49:37.129Z,0.00
2018-08-23T02:50:36.935Z,0.00
2018-08-23T02:51:36.926Z,0.00
2018-08-23T02:52:37.040Z,0.00
2018-08-23T02:53:36.897Z,0.00
2018-08-23T02:54:36.957Z,0.00
2018-08-23T02:55:36.827Z,0.00
2018-08-23T02:56:36.969Z,0.00
2018-08-23T02:57:36.779Z,0.00
2018-08-23T02:58:36.865Z,0.00
2018-08-23T02:59:36.733Z,0.00
2018-08-23T03:00:36.943Z,0.00
2018-08-23T03:01:36.699Z,0.00
2018-08-23T03:02:36.757Z,0.00
2018-08-23T03:03:36.649Z,0.00
2018-08-23T03:04:36.629Z,0.00
2018-08-23T03:05:36.610Z,0.00
2018-08-23T03:06:36.676Z,0.00
2018-08-23T03:07:36.566Z,0.00
2018-08-23T03:08:36.597Z,0.00
2018-08-23T03:09:36.514Z,0.00
2018-08-23T03:10:36.494Z,0.00
2018-08-23T03:11:36.531Z,0.00
2018-08-23T03:13:22.997Z,0.00
2018-08-23T03:14:23.011Z,0.00
2018-08-23T03:16:16.774Z,0.00
2018-08-23T03:17:16.800Z,0.00
2018-08-23T03:18:16.714Z,0.00
2018-08-23T03:19:16.841Z,0.00
2018-08-23T03:20:16.652Z,0.00
2018-08-23T03:21:16.639Z,0.00
2018-08-23T03:22:16.711Z,0.00
2018-08-23T03:23:16.578Z,0.00
2018-08-23T03:24:16.630Z,0.00
2018-08-23T03:25:16.547Z,0.00
2018-08-23T03:26:16.645Z,0.00
2018-08-23T03:27:16.497Z,0.00
2018-08-23T03:28:16.568Z,0.00
2018-08-23T03:29:16.459Z,0.00
2018-08-23T03:30:16.575Z,0.00
2018-08-23T03:31:16.415Z,0.00
2018-08-23T03:32:17.516Z,0.00
2018-08-23T03:33:16.376Z,0.00
2018-08-23T03:34:16.388Z,0.00
2018-08-23T03:35:16.325Z,0.00
2018-08-23T03:36:16.407Z,0.00
2018-08-23T03:37:16.264Z,0.00
2018-08-23T03:38:16.313Z,0.00
2018-08-23T03:39:16.222Z,0.00
2018-08-23T03:40:16.327Z,0.00
2018-08-23T03:41:16.182Z,0.00
2018-08-23T03:42:16.247Z,0.00
2018-08-23T03:43:16.150Z,0.00
2018-08-23T03:44:16.270Z,0.00
2018-08-23T03:45:16.110Z,0.00
2018-08-23T03:46:16.175Z,0.00
2018-08-23T03:47:16.053Z,0.00
2018-08-23T03:48:16.028Z,0.00
2018-08-23T03:49:16.003Z,0.00
2018-08-23T03:50:16.100Z,0.00
2018-08-23T03:51:15.956Z,0.00
2018-08-23T03:52:16.002Z,0.00
2018-08-23T03:53:15.923Z,0.00
2018-08-23T03:54:16.013Z,0.00
2018-08-23T03:55:15.873Z,0.00
2018-08-23T03:56:15.924Z,0.00
2018-08-23T03:57:15.838Z,4.00
2018-08-23T03:58:15.807Z,0.00
2018-08-23T03:59:15.784Z,0.00
2018-08-23T04:01:11.758Z,4.00
2018-08-23T04:02:11.777Z,4.00
2018-08-23T04:03:11.687Z,4.00
2018-08-23T04:04:11.834Z,4.00
2018-08-23T04:05:11.643Z,4.00
2018-08-23T04:06:11.700Z,8.00
2018-08-23T04:07:11.593Z,8.00
2018-08-23T04:08:11.724Z,8.00
2018-08-23T04:09:11.544Z,12.00
2018-08-23T04:10:11.628Z,12.00
2018-08-23T04:11:11.509Z,16.00
2018-08-23T04:12:11.632Z,12.00
2018-08-23T04:13:11.466Z,16.00
2018-08-23T04:14:11.444Z,20.00
2018-08-23T04:15:11.468Z,20.00
2018-08-23T04:16:11.390Z,24.00
2018-08-23T04:17:11.457Z,28.00
2018-08-23T04:18:11.339Z,32.00
2018-08-23T04:19:11.477Z,36.00
2018-08-23T04:20:11.299Z,40.00
2018-08-23T04:21:11.398Z,44.00
2018-08-23T04:22:11.253Z,48.00
2018-08-23T04:23:11.234Z,56.00
2018-08-23T04:24:11.208Z,56.00
2018-08-23T04:25:11.239Z,64.00
2018-08-23T04:26:11.190Z,68.00
2018-08-23T04:27:12.350Z,76.00
2018-08-23T04:28:11.119Z,80.00
2018-08-23T04:29:11.128Z,88.00
2018-08-23T04:30:11.084Z,96.00
2018-08-23T04:31:11.157Z,104.00
2018-08-23T04:32:11.039Z,112.00
2018-08-23T04:33:11.076Z,120.00
2018-08-23T04:34:10.987Z,124.00
2018-08-23T04:35:11.069Z,136.00
2018-08-23T04:36:10.944Z,140.00
2018-08-23T04:37:12.013Z,148.00
2018-08-23T04:38:10.901Z,156.00
2018-08-23T04:39:11.920Z,164.00
2018-08-23T04:40:10.840Z,168.00
2018-08-23T04:41:10.902Z,180.00
2018-08-23T04:42:10.796Z,188.00
2018-08-23T04:43:10.847Z,196.00
2018-08-23T04:44:10.757Z,208.00
2018-08-23T04:45:10.830Z,216.00
2018-08-23T04:46:10.716Z,232.00
2018-08-23T04:48:00.926Z,248.00
2018-08-23T04:49:00.929Z,264.00
2018-08-23T04:50:00.849Z,276.00
2018-08-23T04:51:00.842Z,296.00
2018-08-23T04:52:00.801Z,312.00
2018-08-23T04:53:00.778Z,328.00
2018-08-23T04:54:00.889Z,352.00
2018-08-23T04:55:00.726Z,372.00
2018-08-23T04:56:00.930Z,392.00
2018-08-23T04:57:00.679Z,412.00
2018-08-23T04:58:00.780Z,432.00
2018-08-23T04:59:00.631Z,452.00
2018-08-23T05:00:00.720Z,472.00
2018-08-23T05:01:00.598Z,496.00
2018-08-23T05:02:00.718Z,528.00
2018-08-23T05:03:00.565Z,560.00
2018-08-23T05:04:00.636Z,588.00
2018-08-23T05:05:00.504Z,616.00
2018-08-23T05:06:00.605Z,640.00
2018-08-23T05:07:00.452Z,668.00
2018-08-23T05:08:00.590Z,696.00
2018-08-23T05:09:00.417Z,728.00
2018-08-23T05:10:00.518Z,764.00
2018-08-23T05:11:00.367Z,792.00
2018-08-23T05:12:00.440Z,820.00
2018-08-23T05:13:00.324Z,848.00
2018-08-23T05:14:00.513Z,876.00
2018-08-23T05:15:00.283Z,908.00
2018-08-23T05:16:00.362Z,936.00
2018-08-23T05:17:00.237Z,972.00
2018-08-23T05:18:00.282Z,1012.00
2018-08-23T05:19:00.187Z,1044.00
2018-08-23T05:20:00.165Z,1072.00
2018-08-23T05:21:01.292Z,1100.00
2018-08-23T05:22:00.120Z,1128.00
2018-08-23T05:23:50.477Z,1176.00
2018-08-23T05:24:50.487Z,1208.00
2018-08-23T05:25:50.414Z,1240.00
2018-08-23T05:26:50.555Z,1280.00
2018-08-23T05:27:50.350Z,1300.00
2018-08-23T05:28:50.464Z,1340.00
2018-08-23T05:29:50.327Z,1368.00
2018-08-23T05:30:50.474Z,1396.00
2018-08-23T05:31:50.281Z,1420.00
2018-08-23T05:32:50.390Z,1444.00
2018-08-23T05:33:50.223Z,1476.00
2018-08-23T05:34:50.197Z,1512.00
2018-08-23T05:35:50.303Z,1540.00
2018-08-23T05:36:50.174Z,1568.00
2018-08-23T05:37:50.320Z,1584.00
2018-08-23T05:38:50.104Z,1608.00
2018-08-23T05:39:50.094Z,1624.00
2018-08-23T05:40:50.076Z,1652.00
2018-08-23T05:41:50.084Z,1676.00
2018-08-23T05:42:50.052Z,1712.00
2018-08-23T05:43:50.100Z,1752.00
2018-08-23T05:44:49.964Z,1776.00
2018-08-23T05:45:49.936Z,1812.00
2018-08-23T05:46:51.031Z,1824.00
2018-08-23T05:47:49.897Z,1836.00
2018-08-23T05:48:49.877Z,1852.00
2018-08-23T05:50:36.329Z,1916.00
2018-08-23T05:51:36.304Z,1948.00
2018-08-23T05:52:36.342Z,1984.00
2018-08-23T05:53:36.218Z,2016.00
2018-08-23T05:54:36.320Z,2036.00
2018-08-23T05:55:36.183Z,2068.00
2018-08-23T05:56:36.154Z,2088.00
2018-08-23T05:57:36.240Z,2120.00
2018-08-23T05:58:36.124Z,2160.00
2018-08-23T05:59:36.149Z,2204.00
2018-08-23T06:00:36.060Z,2256.00
2018-08-23T06:01:36.158Z,2304.00
2018-08-23T06:02:36.071Z,2332.00
2018-08-23T06:03:36.097Z,2344.00
2018-08-23T06:04:35.975Z,2376.00
2018-08-23T06:05:35.996Z,2388.00
2018-08-23T06:06:35.939Z,2396.00
2018-08-23T06:07:40.611Z,2404.00
2018-08-23T06:08:35.895Z,2424.00
2018-08-23T06:09:36.932Z,2424.00
2018-08-23T06:10:35.849Z,2436.00
2018-08-23T06:11:35.931Z,2432.00
2018-08-23T06:12:35.999Z,2424.00
2018-08-23T06:13:35.834Z,2460.00
2018-08-23T06:14:35.761Z,2500.00
2018-08-23T06:15:35.729Z,2532.00
2018-08-23T06:16:35.752Z,2572.00
2018-08-23T06:17:35.692Z,2580.00
2018-08-23T06:18:35.780Z,2576.00
2018-08-23T06:19:35.651Z,2540.00
2018-08-23T06:20:35.683Z,2508.00
2018-08-23T06:21:35.603Z,2540.00
2018-08-23T06:22:35.697Z,2568.00
2018-08-23T06:23:35.555Z,2596.00
2018-08-23T06:24:35.657Z,2604.00
2018-08-23T06:25:35.528Z,2576.00
2018-08-23T06:27:21.447Z,2520.00
2018-08-23T06:28:21.337Z,2492.00
2018-08-23T06:29:21.408Z,2472.00
2018-08-23T06:30:21.295Z,2480.00
2018-08-23T06:31:21.318Z,2488.00
2018-08-23T06:32:21.250Z,2480.00
2018-08-23T06:33:22.376Z,2504.00
2018-08-23T06:34:21.198Z,2500.00
2018-08-23T06:35:21.181Z,2468.00
2018-08-23T06:36:21.257Z,2412.00
2018-08-23T06:37:21.131Z,2376.00
2018-08-23T06:38:21.159Z,2352.00
2018-08-23T06:39:21.104Z,2352.00
2018-08-23T06:40:21.174Z,2376.00
2018-08-23T06:41:21.044Z,2412.00
2018-08-23T06:42:21.097Z,2448.00
2018-08-23T06:43:21.002Z,2480.00
2018-08-23T06:44:21.008Z,2512.00
2018-08-23T06:45:20.974Z,2576.00
2018-08-23T06:46:20.980Z,2604.00
2018-08-23T06:47:20.916Z,2596.00
2018-08-23T06:48:20.923Z,2592.00
2018-08-23T06:49:20.873Z,2612.00
2018-08-23T06:50:20.935Z,2668.00
2018-08-23T06:51:20.903Z,2700.00
2018-08-23T06:52:20.857Z,2748.00
2018-08-23T06:53:20.770Z,2784.00
2018-08-23T06:55:07.540Z,2760.00
2018-08-23T06:56:07.497Z,2768.00
2018-08-23T06:57:07.686Z,2768.00
2018-08-23T06:58:07.497Z,2780.00
2018-08-23T06:59:08.526Z,2800.00
2018-08-23T07:00:07.495Z,2776.00
2018-08-23T07:01:07.411Z,2736.00
2018-08-23T07:02:07.401Z,2724.00
2018-08-23T07:03:07.330Z,2692.00
2018-08-23T07:04:07.410Z,2708.00
2018-08-23T07:05:07.285Z,2712.00
2018-08-23T07:06:07.322Z,2652.00
2018-08-23T07:07:07.250Z,2692.00
2018-08-23T07:08:07.230Z,2688.00
2018-08-23T07:09:07.200Z,2700.00
2018-08-23T07:10:07.181Z,2684.00
2018-08-23T07:11:07.176Z,2724.00
2018-08-23T07:12:07.127Z,2716.00
2018-08-23T07:13:07.104Z,2740.00
2018-08-23T07:14:07.080Z,2740.00
2018-08-23T07:15:07.068Z,2772.00
2018-08-23T07:16:07.045Z,2776.00
2018-08-23T07:17:07.048Z,2768.00
2018-08-23T07:19:06.141Z,2780.00
2018-08-23T07:20:06.078Z,2760.00
2018-08-23T07:21:59.825Z,2760.00
2018-08-23T07:22:59.758Z,2788.00
2018-08-23T07:23:59.741Z,2716.00
2018-08-23T07:24:59.714Z,2648.00
2018-08-23T07:25:59.702Z,2632.00
2018-08-23T07:26:59.671Z,2708.00
2018-08-23T07:27:59.640Z,2744.00
2018-08-23T07:28:59.712Z,2680.00
2018-08-23T07:29:59.717Z,2700.00
2018-08-23T07:30:59.577Z,2736.00
2018-08-23T07:31:59.552Z,2656.00
2018-08-23T07:32:59.635Z,2756.00
2018-08-23T07:33:59.520Z,2732.00
2018-08-23T07:34:59.600Z,2648.00
2018-08-23T07:35:59.477Z,2664.00
2018-08-23T07:36:59.511Z,2728.00
2018-08-23T07:37:59.411Z,2720.00
2018-08-23T07:38:59.423Z,2628.00
2018-08-23T07:39:59.369Z,2588.00
2018-08-23T07:40:59.441Z,2584.00
2018-08-23T07:41:59.369Z,2628.00
2018-08-23T07:42:59.724Z,2660.00
2018-08-23T07:43:59.297Z,2744.00
2018-08-23T07:44:59.364Z,2752.00
2018-08-23T07:45:59.232Z,2684.00
2018-08-23T07:46:59.271Z,2668.00
2018-08-23T07:47:59.187Z,2776.00
2018-08-23T07:48:59.296Z,2820.00
2018-08-23T07:49:59.188Z,2844.00
2018-08-23T07:51:00.220Z,2804.00
2018-08-23T07:51:59.120Z,2752.00
2018-08-23T07:52:59.234Z,2780.00
2018-08-23T07:53:59.160Z,2804.00
2018-08-23T07:54:59.158Z,2692.00
2018-08-23T07:55:59.221Z,2668.00
2018-08-23T07:56:58.994Z,2724.00
2018-08-23T07:57:59.033Z,2796.00
2018-08-23T07:58:59.094Z,2840.00
2018-08-23T07:59:58.951Z,2900.00
2018-08-23T08:00:58.896Z,3112.00
2018-08-23T08:01:58.969Z,3016.00
2018-08-23T08:02:58.860Z,2824.00
2018-08-23T08:03:58.890Z,2748.00
2018-08-23T08:05:51.627Z,2748.00
2018-08-23T08:06:51.561Z,2752.00
2018-08-23T08:07:51.553Z,2748.00
2018-08-23T08:08:51.527Z,2628.00
2018-08-23T08:09:51.519Z,2500.00
2018-08-23T08:10:51.485Z,2512.00
2018-08-23T08:11:51.454Z,2544.00
2018-08-23T08:12:51.428Z,2520.00
2018-08-23T08:13:51.409Z,2488.00
2018-08-23T08:14:51.474Z,2456.00
2018-08-23T08:15:51.378Z,2476.00
2018-08-23T08:16:51.372Z,2480.00
2018-08-23T08:17:51.317Z,2380.00
2018-08-23T08:18:51.289Z,2416.00
2018-08-23T08:19:51.285Z,2472.00
2018-08-23T08:20:51.264Z,2452.00
2018-08-23T08:21:51.236Z,2520.00
2018-08-23T08:23:37.076Z,2324.00
2018-08-23T08:24:37.028Z,2468.00
2018-08-23T08:25:37.001Z,2420.00
2018-08-23T08:26:36.964Z,2468.00
2018-08-23T08:27:36.962Z,2460.00
2018-08-23T08:28:36.936Z,2520.00
2018-08-23T08:29:36.903Z,2524.00
2018-08-23T08:30:36.878Z,2452.00
2018-08-23T08:31:36.861Z,2504.00
2018-08-23T08:32:36.838Z,2452.00
2018-08-23T08:33:36.888Z,2268.00
2018-08-23T08:34:36.899Z,2376.00
2018-08-23T08:35:36.761Z,2420.00
2018-08-23T08:36:36.859Z,2440.00
2018-08-23T08:37:36.787Z,2428.00
2018-08-23T08:38:36.920Z,2484.00
2018-08-23T08:39:36.683Z,2600.00
2018-08-23T08:40:36.787Z,2592.00
2018-08-23T08:41:36.788Z,3244.00
2018-08-23T08:42:36.636Z,2980.00
2018-08-23T08:43:36.592Z,2736.00
2018-08-23T08:44:36.566Z,2776.00
2018-08-23T08:45:36.549Z,3092.00
2018-08-23T08:46:36.537Z,2844.00
2018-08-23T08:47:36.522Z,2656.00
2018-08-23T08:48:37.556Z,2904.00
2018-08-23T08:49:36.453Z,2860.00
2018-08-23T08:50:36.601Z,3036.00
2018-08-23T08:52:23.366Z,3168.00
2018-08-23T08:53:23.302Z,2828.00
2018-08-23T08:54:23.371Z,2892.00
2018-08-23T08:55:23.239Z,2836.00
2018-08-23T08:56:23.279Z,2892.00
2018-08-23T08:57:23.201Z,3104.00
2018-08-23T08:58:23.298Z,3812.00
2018-08-23T08:59:23.160Z,2920.00
2018-08-23T09:00:23.205Z,2660.00
2018-08-23T09:01:23.119Z,2724.00
2018-08-23T09:02:23.213Z,2884.00
2018-08-23T09:03:23.109Z,2828.00
2018-08-23T09:04:23.129Z,2796.00
2018-08-23T09:05:23.039Z,2968.00
2018-08-23T09:06:23.044Z,2916.00
2018-08-23T09:07:22.985Z,2876.00
2018-08-23T09:08:23.056Z,3052.00
2018-08-23T09:09:22.928Z,3044.00
2018-08-23T09:10:22.914Z,3160.00
2018-08-23T09:11:22.892Z,3960.00
2018-08-23T09:12:22.862Z,3684.00
2018-08-23T09:13:22.842Z,3828.00
2018-08-23T09:14:22.821Z,3840.00
2018-08-23T09:15:22.798Z,3640.00
2018-08-23T09:16:22.789Z,3736.00
2018-08-23T09:17:22.760Z,3396.00
2018-08-23T09:19:09.281Z,3352.00
2018-08-23T09:20:09.419Z,3100.00
2018-08-23T09:21:09.225Z,3132.00
2018-08-23T09:22:09.320Z,2944.00
2018-08-23T09:23:09.168Z,3176.00
2018-08-23T09:24:09.137Z,3672.00
2018-08-23T09:25:09.116Z,3036.00
2018-08-23T09:26:09.087Z,3300.00
2018-08-23T09:27:09.092Z,3744.00
2018-08-23T09:28:09.057Z,3432.00
2018-08-23T09:29:09.166Z,3420.00
2018-08-23T09:30:08.996Z,3428.00
2018-08-23T09:31:11.730Z,3624.00
2018-08-23T09:32:09.171Z,3960.00
2018-08-23T09:33:09.155Z,3900.00
2018-08-23T09:34:09.598Z,3752.00
2018-08-23T09:35:11.811Z,3680.00
2018-08-23T09:36:08.887Z,3472.00
2018-08-23T09:37:09.004Z,3476.00
2018-08-23T09:38:08.828Z,3260.00
2018-08-23T09:39:08.818Z,3496.00
2018-08-23T09:40:08.795Z,3604.00
2018-08-23T09:40:55.698Z,3584.00
2018-08-23T09:41:55.710Z,3576.00
2018-08-23T09:42:55.630Z,3564.00
2018-08-23T09:43:55.642Z,3580.00
2018-08-23T09:44:55.570Z,3664.00
2018-08-23T09:45:55.556Z,3712.00
2018-08-23T09:46:55.530Z,3732.00
2018-08-23T09:47:55.512Z,3812.00
2018-08-23T09:48:55.544Z,3868.00
2018-08-23T09:49:55.586Z,4260.00
2018-08-23T09:50:55.532Z,4728.00
2018-08-23T09:51:56.495Z,4528.00
2018-08-23T09:52:55.408Z,4168.00
2018-08-23T09:53:55.384Z,4176.00
2018-08-23T09:54:55.369Z,4252.00
2018-08-23T09:55:55.408Z,4844.00
2018-08-23T09:56:55.326Z,5680.00
2018-08-23T09:57:55.288Z,6304.00
2018-08-23T09:58:55.325Z,6352.00
2018-08-23T09:59:55.317Z,6324.00
2018-08-23T10:00:55.236Z,4928.00
2018-08-23T10:01:55.236Z,4152.00
2018-08-23T10:03:41.426Z,4812.00
2018-08-23T10:04:42.529Z,4648.00
2018-08-23T10:05:41.332Z,4320.00
2018-08-23T10:06:41.445Z,4708.00
2018-08-23T10:07:41.288Z,4520.00
2018-08-23T10:08:41.357Z,5136.00
2018-08-23T10:09:41.252Z,5388.00
2018-08-23T10:10:41.265Z,5652.00
2018-08-23T10:11:41.324Z,6120.00
2018-08-23T10:12:41.276Z,5648.00
2018-08-23T10:13:41.164Z,5100.00
2018-08-23T10:14:41.132Z,5004.00
2018-08-23T10:15:41.199Z,5424.00
2018-08-23T10:16:41.091Z,5632.00
2018-08-23T10:17:41.104Z,6176.00
2018-08-23T10:18:41.047Z,5504.00
2018-08-23T10:19:41.125Z,5000.00
2018-08-23T10:20:41.000Z,5016.00
2018-08-23T10:21:41.033Z,5276.00
2018-08-23T10:22:40.964Z,4388.00
2018-08-23T10:23:40.947Z,3868.00
2018-08-23T10:24:40.954Z,4460.00
2018-08-23T10:25:40.894Z,3800.00
2018-08-23T10:26:40.940Z,3628.00
2018-08-23T10:27:40.851Z,4048.00
2018-08-23T10:28:40.887Z,4892.00
2018-08-23T10:29:40.805Z,6156.00
2018-08-23T10:30:40.783Z,6372.00
2018-08-23T10:31:40.766Z,6688.00
2018-08-23T10:32:40.820Z,5384.00
2018-08-23T10:33:40.727Z,4592.00
2018-08-23T10:34:40.816Z,4820.00
2018-08-23T10:35:40.673Z,4560.00
2018-08-23T10:36:40.659Z,4128.00
2018-08-23T10:37:40.748Z,3848.00
2018-08-23T10:38:40.642Z,3876.00
2018-08-23T10:39:40.854Z,3872.00
2018-08-23T10:40:40.596Z,4156.00
2018-08-23T10:41:41.844Z,4496.00
2018-08-23T10:42:40.525Z,4744.00
2018-08-23T10:43:40.578Z,4168.00
2018-08-23T10:44:40.572Z,3620.00
2018-08-23T10:45:40.454Z,3896.00
2018-08-23T10:46:40.434Z,3728.00
2018-08-23T10:47:40.520Z,3784.00
2018-08-23T10:48:40.390Z,4504.00
2018-08-23T10:49:40.369Z,4728.00
2018-08-23T10:51:26.824Z,4460.00
2018-08-23T10:52:26.831Z,3876.00
2018-08-23T10:53:26.758Z,4340.00
2018-08-23T10:54:26.826Z,4464.00
2018-08-23T10:55:26.682Z,3924.00
2018-08-23T10:56:26.737Z,4132.00
2018-08-23T10:57:26.632Z,4936.00
2018-08-23T10:58:26.752Z,5336.00
2018-08-23T10:59:26.596Z,4692.00
2018-08-23T11:00:26.655Z,5104.00
2018-08-23T11:01:26.561Z,5500.00
2018-08-23T11:02:26.562Z,6740.00
2018-08-23T11:04:12.554Z,6428.00
2018-08-23T11:05:12.496Z,6136.00
2018-08-23T11:06:12.566Z,5344.00
2018-08-23T11:07:12.463Z,4780.00
2018-08-23T11:08:12.621Z,4304.00
2018-08-23T11:09:12.408Z,4144.00
2018-08-23T11:10:12.421Z,4640.00
2018-08-23T11:11:12.395Z,5320.00
2018-08-23T11:12:12.445Z,5376.00
2018-08-23T11:13:12.324Z,5364.00
2018-08-23T11:14:12.455Z,5436.00
2018-08-23T11:15:12.331Z,5432.00
2018-08-23T11:16:12.358Z,5464.00
2018-08-23T11:17:12.299Z,4840.00
2018-08-23T11:18:12.228Z,5116.00
2018-08-23T11:19:12.314Z,5828.00
2018-08-23T11:20:12.198Z,5264.00
2018-08-23T11:21:12.223Z,5796.00
2018-08-23T11:22:12.132Z,5724.00
2018-08-23T11:23:12.291Z,5836.00
2018-08-23T11:24:12.150Z,4996.00
2018-08-23T11:25:12.069Z,4404.00
2018-08-23T11:26:12.165Z,4336.00
2018-08-23T11:26:58.868Z,4576.00
2018-08-23T11:27:58.859Z,5112.00
2018-08-23T11:28:58.771Z,5296.00
2018-08-23T11:29:59.801Z,6092.00
2018-08-23T11:30:58.723Z,6772.00
2018-08-23T11:31:58.701Z,6136.00
2018-08-23T11:32:58.834Z,5832.00
2018-08-23T11:33:58.671Z,6284.00
2018-08-23T11:34:58.643Z,5788.00
2018-08-23T11:35:58.623Z,6008.00
2018-08-23T11:36:59.188Z,6252.00
2018-08-23T11:37:58.570Z,6012.00
2018-08-23T11:38:58.668Z,5976.00
2018-08-23T11:39:58.532Z,6032.00
2018-08-23T11:40:58.514Z,4848.00
2018-08-23T11:41:58.489Z,3968.00
2018-08-23T11:42:58.599Z,4036.00
2018-08-23T11:43:58.449Z,5396.00
2018-08-23T11:44:58.430Z,5020.00
2018-08-23T11:45:58.467Z,4244.00
2018-08-23T11:46:58.394Z,4188.00
2018-08-23T11:47:58.538Z,4352.00
2018-08-23T11:48:58.378Z,5164.00
2018-08-23T11:49:59.461Z,6084.00
2018-08-23T11:50:58.308Z,6944.00
2018-08-23T11:51:58.456Z,6344.00
2018-08-23T11:52:58.292Z,5476.00
2018-08-23T11:53:58.428Z,5404.00
2018-08-23T11:54:58.225Z,5696.00
2018-08-23T11:55:58.200Z,5020.00
2018-08-23T11:56:58.172Z,4876.00
2018-08-23T11:57:58.306Z,5028.00
2018-08-23T11:59:44.156Z,5932.00
2018-08-23T12:00:44.108Z,5292.00
2018-08-23T12:02:38.241Z,5096.00
2018-08-23T12:03:38.193Z,3976.00
2018-08-23T12:04:38.264Z,3508.00
2018-08-23T12:05:38.146Z,3968.00
2018-08-23T12:06:38.329Z,3712.00
2018-08-23T12:07:38.114Z,3992.00
2018-08-23T12:08:38.212Z,4284.00
2018-08-23T12:09:38.064Z,4056.00
2018-08-23T12:10:38.206Z,4036.00
2018-08-23T12:11:38.022Z,3828.00
2018-08-23T12:12:38.113Z,3780.00
2018-08-23T12:13:37.981Z,4328.00
2018-08-23T12:14:38.127Z,3972.00
2018-08-23T12:15:37.958Z,4028.00
2018-08-23T12:16:38.041Z,4276.00
2018-08-23T12:17:37.906Z,4492.00
2018-08-23T12:18:38.925Z,4532.00
2018-08-23T12:19:37.854Z,4488.00
2018-08-23T12:20:37.948Z,4632.00
2018-08-23T12:21:37.817Z,4696.00
2018-08-23T12:22:37.792Z,4852.00
2018-08-23T12:23:38.873Z,4964.00
2018-08-23T12:24:37.752Z,4788.00
2018-08-23T12:25:39.827Z,4040.00
2018-08-23T12:26:37.728Z,4172.00
2018-08-23T12:27:37.768Z,5680.00
2018-08-23T12:28:37.682Z,4880.00
2018-08-23T12:29:38.885Z,4448.00
2018-08-23T12:30:37.638Z,3356.00
2018-08-23T12:31:44.689Z,3068.00
2018-08-23T12:32:37.604Z,3912.00
2018-08-23T12:34:30.340Z,4704.00
2018-08-23T12:35:31.375Z,3988.00
2018-08-23T12:37:30.250Z,3904.00
2018-08-23T12:38:30.260Z,3136.00
2018-08-23T12:40:25.232Z,4604.00
2018-08-23T12:41:25.003Z,4460.00
2018-08-23T12:42:25.068Z,4224.00
2018-08-23T12:43:25.000Z,4156.00
2018-08-23T12:44:25.099Z,3504.00
2018-08-23T12:45:24.900Z,3268.00
2018-08-23T12:46:25.029Z,3204.00
2018-08-23T12:47:24.872Z,3204.00
2018-08-23T12:48:25.008Z,3212.00
2018-08-23T12:49:24.896Z,2872.00
2018-08-23T12:50:29.731Z,2780.00
2018-08-23T12:51:24.786Z,2772.00